sensor_id;sensor_type;location;lat;lon;timestamp;pressure;altitude;pressure_sealevel;temperature;humidity
6423;BME280;3244;42.708;23.288;2023-06-10T00:01:10;94653.94;;;20.20;80.54
6423;BME280;3244;42.708;23.288;2023-06-10T00:03:37;94657.91;;;20.13;80.73
6423;BME280;3244;42.708;23.288;2023-06-10T00:06:05;94657.44;;;20.19;80.85
6423;BME280;3244;42.708;23.288;2023-06-10T00:08:32;94644.31;;;20.11;81.19
6423;BME280;3244;42.708;23.288;2023-06-10T00:10:59;94648.06;;;20.07;81.66
6423;BME280;3244;42.708;23.288;2023-06-10T00:13:25;94636.81;;;19.97;82.16
6423;BME280;3244;42.708;23.288;2023-06-10T00:15:52;94637.06;;;19.94;82.29
6423;BME280;3244;42.708;23.288;2023-06-10T00:18:19;94638.94;;;19.92;82.55
6423;BME280;3244;42.708;23.288;2023-06-10T00:20:47;94647.63;;;20.02;81.96
6423;BME280;3244;42.708;23.288;2023-06-10T00:23:19;94638.25;;;19.79;82.89
6423;BME280;3244;42.708;23.288;2023-06-10T00:25:46;94647.59;;;19.68;83.57
6423;BME280;3244;42.708;23.288;2023-06-10T00:28:13;94647.00;;;19.65;83.90
6423;BME280;3244;42.708;23.288;2023-06-10T00:30:39;94645.97;;;19.67;83.73
6423;BME280;3244;42.708;23.288;2023-06-10T00:33:06;94657.91;;;19.68;84.04
6423;BME280;3244;42.708;23.288;2023-06-10T00:35:33;94645.97;;;19.67;83.82
6423;BME280;3244;42.708;23.288;2023-06-10T00:37:59;94649.34;;;19.57;84.53
6423;BME280;3244;42.708;23.288;2023-06-10T00:40:27;94643.84;;;19.50;84.74
6423;BME280;3244;42.708;23.288;2023-06-10T00:42:54;94645.69;;;19.48;85.08
6423;BME280;3244;42.708;23.288;2023-06-10T00:45:21;94643.34;;;19.45;85.50
6423;BME280;3244;42.708;23.288;2023-06-10T00:47:48;94639.72;;;19.59;84.67
6423;BME280;3244;42.708;23.288;2023-06-10T00:50:14;94646.50;;;19.49;85.13
6423;BME280;3244;42.708;23.288;2023-06-10T00:52:42;94643.25;;;19.58;84.92
6423;BME280;3244;42.708;23.288;2023-06-10T00:55:10;94645.69;;;19.48;85.69
6423;BME280;3244;42.708;23.288;2023-06-10T00:57:38;94642.84;;;19.40;85.74
6423;BME280;3244;42.708;23.288;2023-06-10T01:00:07;94657.84;;;19.46;85.95
6423;BME280;3244;42.708;23.288;2023-06-10T01:02:35;94656.63;;;19.52;85.58
6423;BME280;3244;42.708;23.288;2023-06-10T01:05:02;94658.16;;;19.54;85.56
6423;BME280;3244;42.708;23.288;2023-06-10T01:07:34;94647.56;;;19.46;85.87
6423;BME280;3244;42.708;23.288;2023-06-10T01:10:10;94659.63;;;19.46;86.36
6423;BME280;3244;42.708;23.288;2023-06-10T01:12:43;94663.94;;;19.45;86.35
6423;BME280;3244;42.708;23.288;2023-06-10T01:15:14;94655.31;;;19.57;85.65
6423;BME280;3244;42.708;23.288;2023-06-10T01:17:56;94655.91;;;19.61;85.67
6423;BME280;3244;42.708;23.288;2023-06-10T01:20:23;94664.91;;;19.55;85.87
6423;BME280;3244;42.708;23.288;2023-06-10T01:22:53;94652.28;;;19.52;86.56
6423;BME280;3244;42.708;23.288;2023-06-10T01:25:21;94655.78;;;19.51;87.07
6423;BME280;3244;42.708;23.288;2023-06-10T01:27:54;94654.25;;;19.60;86.79
6423;BME280;3244;42.708;23.288;2023-06-10T01:30:27;94647.84;;;19.77;86.51
6423;BME280;3244;42.708;23.288;2023-06-10T01:32:58;94655.00;;;19.73;86.55
6423;BME280;3244;42.708;23.288;2023-06-10T01:35:27;94657.69;;;19.72;86.75
6423;BME280;3244;42.708;23.288;2023-06-10T01:37:58;94646.91;;;19.66;87.24
6423;BME280;3244;42.708;23.288;2023-06-10T01:40:27;94644.31;;;19.66;87.37
6423;BME280;3244;42.708;23.288;2023-06-10T01:42:54;94644.44;;;19.65;87.40
6423;BME280;3244;42.708;23.288;2023-06-10T01:45:21;94644.34;;;19.78;87.58
6423;BME280;3244;42.708;23.288;2023-06-10T01:47:47;94643.03;;;19.61;87.70
6423;BME280;3244;42.708;23.288;2023-06-10T01:50:14;94633.47;;;19.28;89.49
6423;BME280;3244;42.708;23.288;2023-06-10T01:52:41;94641.66;;;19.33;89.23
6423;BME280;3244;42.708;23.288;2023-06-10T01:55:10;94638.28;;;19.44;89.04
6423;BME280;3244;42.708;23.288;2023-06-10T01:57:36;94635.19;;;19.51;88.42
6423;BME280;3244;42.708;23.288;2023-06-10T02:00:03;94621.09;;;19.55;88.61
6423;BME280;3244;42.708;23.288;2023-06-10T02:02:30;94633.66;;;19.60;88.01
6423;BME280;3244;42.708;23.288;2023-06-10T02:04:57;94627.09;;;19.67;87.05
6423;BME280;3244;42.708;23.288;2023-06-10T02:07:24;94622.50;;;19.59;87.00
6423;BME280;3244;42.708;23.288;2023-06-10T02:09:50;94627.66;;;19.59;87.45
6423;BME280;3244;42.708;23.288;2023-06-10T02:12:19;94624.66;;;19.54;87.68
6423;BME280;3244;42.708;23.288;2023-06-10T02:14:45;94623.09;;;19.63;86.60
6423;BME280;3244;42.708;23.288;2023-06-10T02:17:12;94620.53;;;19.63;87.30
6423;BME280;3244;42.708;23.288;2023-06-10T02:19:40;94617.59;;;19.56;87.77
6423;BME280;3244;42.708;23.288;2023-06-10T02:22:08;94617.84;;;19.53;87.91
6423;BME280;3244;42.708;23.288;2023-06-10T02:24:35;94614.56;;;19.51;87.80
6423;BME280;3244;42.708;23.288;2023-06-10T02:27:04;94618.66;;;19.54;88.08
6423;BME280;3244;42.708;23.288;2023-06-10T02:29:33;94606.09;;;19.60;87.88
6423;BME280;3244;42.708;23.288;2023-06-10T02:32:01;94612.19;;;19.59;88.01
6423;BME280;3244;42.708;23.288;2023-06-10T02:34:28;94598.72;;;19.56;88.01
6423;BME280;3244;42.708;23.288;2023-06-10T02:36:55;94612.69;;;19.64;88.07
6423;BME280;3244;42.708;23.288;2023-06-10T02:39:21;94603.31;;;19.63;88.58
6423;BME280;3244;42.708;23.288;2023-06-10T02:41:48;94605.88;;;19.63;88.75
6423;BME280;3244;42.708;23.288;2023-06-10T02:44:15;94596.63;;;19.61;88.63
6423;BME280;3244;42.708;23.288;2023-06-10T02:46:43;94588.31;;;19.57;88.73
6423;BME280;3244;42.708;23.288;2023-06-10T02:49:10;94601.66;;;19.62;88.82
6423;BME280;3244;42.708;23.288;2023-06-10T02:51:37;94591.94;;;19.66;88.77
6423;BME280;3244;42.708;23.288;2023-06-10T02:54:04;94596.28;;;19.65;88.70
6423;BME280;3244;42.708;23.288;2023-06-10T02:56:31;94593.34;;;19.70;88.77
6423;BME280;3244;42.708;23.288;2023-06-10T02:58:58;94594.06;;;19.72;88.92
6423;BME280;3244;42.708;23.288;2023-06-10T03:01:25;94596.88;;;19.69;89.16
6423;BME280;3244;42.708;23.288;2023-06-10T03:03:53;94593.59;;;19.67;89.52
6423;BME280;3244;42.708;23.288;2023-06-10T03:06:21;94597.22;;;19.64;89.81
6423;BME280;3244;42.708;23.288;2023-06-10T03:08:49;94607.88;;;19.71;90.05
6423;BME280;3244;42.708;23.288;2023-06-10T03:11:16;94620.53;;;19.74;90.30
6423;BME280;3244;42.708;23.288;2023-06-10T03:13:44;94615.16;;;19.77;90.29
6423;BME280;3244;42.708;23.288;2023-06-10T03:16:11;94610.00;;;19.77;90.51
6423;BME280;3244;42.708;23.288;2023-06-10T03:18:38;94620.06;;;19.80;90.07
6423;BME280;3244;42.708;23.288;2023-06-10T03:21:06;94619.59;;;19.86;90.14
6423;BME280;3244;42.708;23.288;2023-06-10T03:23:34;94620.88;;;19.92;89.54
6423;BME280;3244;42.708;23.288;2023-06-10T03:26:00;94628.75;;;20.01;88.89
6423;BME280;3244;42.708;23.288;2023-06-10T03:28:27;94621.81;;;20.02;88.63
6423;BME280;3244;42.708;23.288;2023-06-10T03:30:54;94632.13;;;20.13;88.14
6423;BME280;3244;42.708;23.288;2023-06-10T03:33:20;94633.53;;;20.17;87.80
6423;BME280;3244;42.708;23.288;2023-06-10T03:35:47;94631.66;;;20.19;87.83
6423;BME280;3244;42.708;23.288;2023-06-10T03:38:15;94625.06;;;20.15;87.99
6423;BME280;3244;42.708;23.288;2023-06-10T03:40:42;94633.16;;;20.11;88.22
6423;BME280;3244;42.708;23.288;2023-06-10T03:43:10;94633.16;;;20.11;88.21
6423;BME280;3244;42.708;23.288;2023-06-10T03:45:36;94630.38;;;20.02;87.91
6423;BME280;3244;42.708;23.288;2023-06-10T03:48:04;94633.63;;;20.04;87.56
6423;BME280;3244;42.708;23.288;2023-06-10T03:50:31;94630.00;;;20.07;87.29
6423;BME280;3244;42.708;23.288;2023-06-10T03:52:58;94626.59;;;20.07;86.95
6423;BME280;3244;42.708;23.288;2023-06-10T03:55:26;94622.53;;;20.04;86.82
6423;BME280;3244;42.708;23.288;2023-06-10T03:57:53;94617.38;;;20.04;86.06
6423;BME280;3244;42.708;23.288;2023-06-10T04:00:20;94630.13;;;20.05;86.57
6423;BME280;3244;42.708;23.288;2023-06-10T04:02:47;94624.25;;;20.15;85.96
6423;BME280;3244;42.708;23.288;2023-06-10T04:05:18;94626.47;;;20.08;86.31
6423;BME280;3244;42.708;23.288;2023-06-10T04:07:47;94631.19;;;20.03;86.66
6423;BME280;3244;42.708;23.288;2023-06-10T04:10:14;94630.50;;;20.01;87.01
6423;BME280;3244;42.708;23.288;2023-06-10T04:12:42;94626.59;;;20.07;86.83
6423;BME280;3244;42.708;23.288;2023-06-10T04:15:09;94632.59;;;20.07;86.64
6423;BME280;3244;42.708;23.288;2023-06-10T04:17:36;94640.31;;;20.07;87.04
6423;BME280;3244;42.708;23.288;2023-06-10T04:20:03;94637.63;;;20.09;86.81
6423;BME280;3244;42.708;23.288;2023-06-10T04:22:32;94646.19;;;20.09;86.46
6423;BME280;3244;42.708;23.288;2023-06-10T04:24:59;94636.56;;;20.22;85.68
6423;BME280;3244;42.708;23.288;2023-06-10T04:27:26;94627.66;;;20.26;85.11
6423;BME280;3244;42.708;23.288;2023-06-10T04:29:54;94629.28;;;20.27;85.24
6423;BME280;3244;42.708;23.288;2023-06-10T04:32:20;94635.72;;;20.44;85.07
6423;BME280;3244;42.708;23.288;2023-06-10T04:34:47;94630.44;;;20.46;84.48
6423;BME280;3244;42.708;23.288;2023-06-10T04:37:14;94629.19;;;20.29;85.19
6423;BME280;3244;42.708;23.288;2023-06-10T04:39:41;94633.88;;;20.24;85.52
6423;BME280;3244;42.708;23.288;2023-06-10T04:42:07;94644.44;;;20.21;85.74
6423;BME280;3244;42.708;23.288;2023-06-10T04:44:34;94636.09;;;20.17;85.44
6423;BME280;3244;42.708;23.288;2023-06-10T04:47:02;94636.22;;;20.27;85.01
6423;BME280;3244;42.708;23.288;2023-06-10T04:49:29;94631.88;;;20.38;84.45
6423;BME280;3244;42.708;23.288;2023-06-10T04:51:56;94640.03;;;20.55;83.94
6423;BME280;3244;42.708;23.288;2023-06-10T04:54:23;94635.31;;;20.71;83.28
6423;BME280;3244;42.708;23.288;2023-06-10T04:56:49;94640.66;;;20.79;83.49
6423;BME280;3244;42.708;23.288;2023-06-10T04:59:16;94628.84;;;20.97;82.75
6423;BME280;3244;42.708;23.288;2023-06-10T05:01:43;94634.47;;;21.02;82.45
6423;BME280;3244;42.708;23.288;2023-06-10T05:04:11;94631.03;;;20.81;82.76
6423;BME280;3244;42.708;23.288;2023-06-10T05:06:38;94624.50;;;20.66;83.35
6423;BME280;3244;42.708;23.288;2023-06-10T05:09:04;94636.13;;;20.71;83.66
6423;BME280;3244;42.708;23.288;2023-06-10T05:11:31;94632.22;;;20.77;83.63
6423;BME280;3244;42.708;23.288;2023-06-10T05:13:57;94631.72;;;20.83;83.26
6423;BME280;3244;42.708;23.288;2023-06-10T05:16:24;94633.13;;;20.87;81.95
6423;BME280;3244;42.708;23.288;2023-06-10T05:18:51;94641.81;;;20.86;81.81
6423;BME280;3244;42.708;23.288;2023-06-10T05:21:19;94639.28;;;20.75;81.99
6423;BME280;3244;42.708;23.288;2023-06-10T05:23:45;94637.75;;;20.73;82.12
6423;BME280;3244;42.708;23.288;2023-06-10T05:26:12;94639.03;;;20.78;82.15
6423;BME280;3244;42.708;23.288;2023-06-10T05:28:39;94635.56;;;20.89;82.48
6423;BME280;3244;42.708;23.288;2023-06-10T05:31:05;94643.03;;;21.03;81.55
6423;BME280;3244;42.708;23.288;2023-06-10T05:33:32;94646.84;;;21.20;80.95
6423;BME280;3244;42.708;23.288;2023-06-10T05:35:59;94638.63;;;21.26;80.83
6423;BME280;3244;42.708;23.288;2023-06-10T05:38:27;94635.13;;;21.36;80.68
6423;BME280;3244;42.708;23.288;2023-06-10T05:40:54;94643.66;;;21.48;80.50
6423;BME280;3244;42.708;23.288;2023-06-10T05:43:22;94635.81;;;21.59;79.95
6423;BME280;3244;42.708;23.288;2023-06-10T05:45:49;94634.44;;;21.86;77.98
6423;BME280;3244;42.708;23.288;2023-06-10T05:48:15;94639.34;;;22.19;76.22
6423;BME280;3244;42.708;23.288;2023-06-10T05:50:42;94643.53;;;22.51;75.04
6423;BME280;3244;42.708;23.288;2023-06-10T05:53:13;94640.84;;;22.81;74.09
6423;BME280;3244;42.708;23.288;2023-06-10T05:55:42;94641.53;;;23.02;73.76
6423;BME280;3244;42.708;23.288;2023-06-10T05:58:10;94637.88;;;23.24;73.01
6423;BME280;3244;42.708;23.288;2023-06-10T06:00:38;94648.47;;;23.50;71.61
6423;BME280;3244;42.708;23.288;2023-06-10T06:03:07;94652.13;;;23.67;71.02
6423;BME280;3244;42.708;23.288;2023-06-10T06:05:34;94652.50;;;23.82;70.04
6423;BME280;3244;42.708;23.288;2023-06-10T06:08:02;94645.38;;;23.84;69.65
6423;BME280;3244;42.708;23.288;2023-06-10T06:10:29;94645.66;;;23.81;70.17
6423;BME280;3244;42.708;23.288;2023-06-10T06:12:57;94643.59;;;23.94;69.22
6423;BME280;3244;42.708;23.288;2023-06-10T06:15:24;94644.47;;;24.12;68.99
6423;BME280;3244;42.708;23.288;2023-06-10T06:17:51;94648.91;;;24.29;68.16
6423;BME280;3244;42.708;23.288;2023-06-10T06:20:18;94655.06;;;24.56;67.77
6423;BME280;3244;42.708;23.288;2023-06-10T06:22:45;94652.84;;;24.79;66.63
6423;BME280;3244;42.708;23.288;2023-06-10T06:25:12;94651.47;;;24.84;66.51
6423;BME280;3244;42.708;23.288;2023-06-10T06:27:39;94659.09;;;24.86;65.91
6423;BME280;3244;42.708;23.288;2023-06-10T06:30:08;94645.53;;;24.74;66.35
6423;BME280;3244;42.708;23.288;2023-06-10T06:32:35;94658.72;;;24.81;65.86
6423;BME280;3244;42.708;23.288;2023-06-10T06:35:01;94660.97;;;24.93;65.14
6423;BME280;3244;42.708;23.288;2023-06-10T06:37:28;94652.44;;;25.01;64.37
6423;BME280;3244;42.708;23.288;2023-06-10T06:39:55;94655.94;;;25.09;64.31
6423;BME280;3244;42.708;23.288;2023-06-10T06:42:21;94650.69;;;25.19;62.81
6423;BME280;3244;42.708;23.288;2023-06-10T06:44:48;94655.44;;;25.06;63.44
6423;BME280;3244;42.708;23.288;2023-06-10T06:47:16;94649.91;;;24.91;63.95
6423;BME280;3244;42.708;23.288;2023-06-10T06:49:45;94650.41;;;24.77;64.49
6423;BME280;3244;42.708;23.288;2023-06-10T06:52:11;94638.69;;;24.73;64.50
6423;BME280;3244;42.708;23.288;2023-06-10T06:54:38;94638.03;;;24.71;64.81
6423;BME280;3244;42.708;23.288;2023-06-10T06:57:06;94639.44;;;24.65;65.54
6423;BME280;3244;42.708;23.288;2023-06-10T06:59:32;94640.34;;;24.74;65.00
6423;BME280;3244;42.708;23.288;2023-06-10T07:01:59;94641.81;;;24.94;63.70
6423;BME280;3244;42.708;23.288;2023-06-10T07:04:27;94631.22;;;25.05;64.23
6423;BME280;3244;42.708;23.288;2023-06-10T07:06:54;94627.47;;;25.43;62.73
6423;BME280;3244;42.708;23.288;2023-06-10T07:09:20;94639.13;;;25.83;61.71
6423;BME280;3244;42.708;23.288;2023-06-10T07:11:47;94629.78;;;26.32;60.32
6423;BME280;3244;42.708;23.288;2023-06-10T07:14:14;94626.03;;;27.01;58.04
6423;BME280;3244;42.708;23.288;2023-06-10T07:16:41;94630.00;;;28.18;54.61
6423;BME280;3244;42.708;23.288;2023-06-10T07:19:07;94613.75;;;30.13;49.27
6423;BME280;3244;42.708;23.288;2023-06-10T07:21:35;94601.75;;;32.17;43.21
6423;BME280;3244;42.708;23.288;2023-06-10T07:24:03;94606.31;;;34.29;38.43
6423;BME280;3244;42.708;23.288;2023-06-10T07:26:30;94605.03;;;35.28;34.12
6423;BME280;3244;42.708;23.288;2023-06-10T07:28:56;94603.06;;;35.17;33.91
6423;BME280;3244;42.708;23.288;2023-06-10T07:31:23;94609.56;;;35.95;32.53
6423;BME280;3244;42.708;23.288;2023-06-10T07:33:50;94605.53;;;37.14;30.88
6423;BME280;3244;42.708;23.288;2023-06-10T07:36:17;94602.63;;;38.39;27.82
6423;BME280;3244;42.708;23.288;2023-06-10T07:38:45;94605.06;;;38.40;28.63
6423;BME280;3244;42.708;23.288;2023-06-10T07:41:12;94603.91;;;38.88;28.11
6423;BME280;3244;42.708;23.288;2023-06-10T07:43:39;94597.84;;;40.00;26.34
6423;BME280;3244;42.708;23.288;2023-06-10T07:46:06;94596.78;;;40.39;25.49
6423;BME280;3244;42.708;23.288;2023-06-10T07:48:32;94597.28;;;41.98;23.62
6423;BME280;3244;42.708;23.288;2023-06-10T07:50:59;94585.91;;;44.63;21.47
6423;BME280;3244;42.708;23.288;2023-06-10T07:53:26;94593.72;;;46.39;19.82
6423;BME280;3244;42.708;23.288;2023-06-10T07:55:54;94595.66;;;47.57;18.63
6423;BME280;3244;42.708;23.288;2023-06-10T07:58:20;94587.22;;;48.78;16.36
6423;BME280;3244;42.708;23.288;2023-06-10T08:00:48;94591.00;;;49.41;16.02
6423;BME280;3244;42.708;23.288;2023-06-10T08:03:14;94586.59;;;49.22;16.15
6423;BME280;3244;42.708;23.288;2023-06-10T08:05:41;94582.56;;;47.83;16.96
6423;BME280;3244;42.708;23.288;2023-06-10T08:08:08;94582.66;;;46.65;17.91
6423;BME280;3244;42.708;23.288;2023-06-10T08:10:35;94573.78;;;45.25;18.95
6423;BME280;3244;42.708;23.288;2023-06-10T08:13:03;94578.13;;;46.13;18.79
6423;BME280;3244;42.708;23.288;2023-06-10T08:15:30;94580.16;;;46.50;18.79
6423;BME280;3244;42.708;23.288;2023-06-10T08:17:56;94575.88;;;46.91;18.05
6423;BME280;3244;42.708;23.288;2023-06-10T08:20:23;94571.59;;;47.79;17.23
6423;BME280;3244;42.708;23.288;2023-06-10T08:22:50;94560.31;;;48.23;16.67
6423;BME280;3244;42.708;23.288;2023-06-10T08:25:16;94568.78;;;49.08;16.07
6423;BME280;3244;42.708;23.288;2023-06-10T08:27:43;94566.47;;;49.73;15.26
6423;BME280;3244;42.708;23.288;2023-06-10T08:30:11;94565.66;;;49.95;15.63
6423;BME280;3244;42.708;23.288;2023-06-10T08:32:38;94559.78;;;49.70;15.24
6423;BME280;3244;42.708;23.288;2023-06-10T08:35:05;94559.03;;;49.56;15.42
6423;BME280;3244;42.708;23.288;2023-06-10T08:37:32;94562.66;;;49.74;15.25
6423;BME280;3244;42.708;23.288;2023-06-10T08:39:59;94552.84;;;49.87;15.21
6423;BME280;3244;42.708;23.288;2023-06-10T08:42:28;94556.56;;;49.46;15.76
6423;BME280;3244;42.708;23.288;2023-06-10T08:45:01;94562.28;;;49.45;15.28
6423;BME280;3244;42.708;23.288;2023-06-10T08:47:30;94545.69;;;47.32;16.80
6423;BME280;3244;42.708;23.288;2023-06-10T08:50:02;94539.13;;;44.30;19.16
6423;BME280;3244;42.708;23.288;2023-06-10T08:52:36;94550.69;;;44.25;18.99
6423;BME280;3244;42.708;23.288;2023-06-10T08:55:09;94550.41;;;44.86;18.16
6423;BME280;3244;42.708;23.288;2023-06-10T08:57:37;94547.03;;;45.49;17.77
6423;BME280;3244;42.708;23.288;2023-06-10T09:00:05;94539.34;;;46.00;16.36
6423;BME280;3244;42.708;23.288;2023-06-10T09:02:33;94536.00;;;46.08;16.69
6423;BME280;3244;42.708;23.288;2023-06-10T09:05:02;94537.88;;;47.17;16.62
6423;BME280;3244;42.708;23.288;2023-06-10T09:07:30;94536.63;;;47.60;16.46
6423;BME280;3244;42.708;23.288;2023-06-10T09:10:00;94534.56;;;44.40;18.89
6423;BME280;3244;42.708;23.288;2023-06-10T09:12:28;94534.28;;;42.44;20.61
6423;BME280;3244;42.708;23.288;2023-06-10T09:14:55;94524.28;;;43.42;19.74
6423;BME280;3244;42.708;23.288;2023-06-10T09:17:21;94528.03;;;43.36;20.00
6423;BME280;3244;42.708;23.288;2023-06-10T09:19:50;94526.66;;;43.08;20.01
6423;BME280;3244;42.708;23.288;2023-06-10T09:22:19;94520.69;;;42.66;20.14
6423;BME280;3244;42.708;23.288;2023-06-10T09:24:46;94518.31;;;42.74;20.84
6423;BME280;3244;42.708;23.288;2023-06-10T09:27:13;94520.28;;;43.35;19.70
6423;BME280;3244;42.708;23.288;2023-06-10T09:29:46;94518.44;;;40.57;22.57
6423;BME280;3244;42.708;23.288;2023-06-10T09:32:14;94527.50;;;38.95;22.96
6423;BME280;3244;42.708;23.288;2023-06-10T09:34:43;94515.97;;;38.73;24.60
6423;BME280;3244;42.708;23.288;2023-06-10T09:37:12;94519.28;;;38.80;24.62
6423;BME280;3244;42.708;23.288;2023-06-10T09:39:40;94516.19;;;38.43;25.19
6423;BME280;3244;42.708;23.288;2023-06-10T09:42:16;94518.13;;;37.37;24.80
6423;BME280;3244;42.708;23.288;2023-06-10T09:44:49;94511.00;;;35.45;27.16
6423;BME280;3244;42.708;23.288;2023-06-10T09:47:20;94513.97;;;32.79;32.24
6423;BME280;3244;42.708;23.288;2023-06-10T09:49:47;94518.63;;;31.19;34.88
6423;BME280;3244;42.708;23.288;2023-06-10T09:52:21;94502.84;;;30.70;37.19
6423;BME280;3244;42.708;23.288;2023-06-10T09:54:48;94507.97;;;30.78;37.34
6423;BME280;3244;42.708;23.288;2023-06-10T09:57:16;94510.41;;;31.01;36.09
6423;BME280;3244;42.708;23.288;2023-06-10T09:59:43;94500.13;;;30.57;35.82
6423;BME280;3244;42.708;23.288;2023-06-10T10:02:14;94501.69;;;30.15;37.04
6423;BME280;3244;42.708;23.288;2023-06-10T10:04:41;94501.16;;;29.75;37.64
6423;BME280;3244;42.708;23.288;2023-06-10T10:07:08;94494.75;;;29.49;39.10
6423;BME280;3244;42.708;23.288;2023-06-10T10:09:36;94496.81;;;29.53;40.43
6423;BME280;3244;42.708;23.288;2023-06-10T10:12:08;94489.50;;;29.78;39.46
6423;BME280;3244;42.708;23.288;2023-06-10T10:14:36;94495.63;;;29.70;38.68
6423;BME280;3244;42.708;23.288;2023-06-10T10:17:04;94490.94;;;29.36;38.36
6423;BME280;3244;42.708;23.288;2023-06-10T10:19:37;94496.47;;;29.04;39.80
6423;BME280;3244;42.708;23.288;2023-06-10T10:22:08;94488.25;;;28.92;39.38
6423;BME280;3244;42.708;23.288;2023-06-10T10:24:45;94485.53;;;28.86;40.29
6423;BME280;3244;42.708;23.288;2023-06-10T10:27:18;94489.59;;;28.88;40.61
6423;BME280;3244;42.708;23.288;2023-06-10T10:29:47;94482.75;;;28.87;37.89
6423;BME280;3244;42.708;23.288;2023-06-10T10:32:16;94489.78;;;28.64;37.36
6423;BME280;3244;42.708;23.288;2023-06-10T10:34:48;94486.31;;;28.18;36.76
6423;BME280;3244;42.708;23.288;2023-06-10T10:37:17;94483.59;;;28.03;38.28
6423;BME280;3244;42.708;23.288;2023-06-10T10:39:45;94484.84;;;28.15;38.33
6423;BME280;3244;42.708;23.288;2023-06-10T10:42:12;94482.41;;;28.14;38.43
6423;BME280;3244;42.708;23.288;2023-06-10T10:44:40;94480.91;;;28.19;37.47
6423;BME280;3244;42.708;23.288;2023-06-10T10:47:08;94473.38;;;28.24;37.47
6423;BME280;3244;42.708;23.288;2023-06-10T10:49:35;94462.00;;;28.09;36.17
6423;BME280;3244;42.708;23.288;2023-06-10T10:52:04;94470.78;;;28.16;37.73
6423;BME280;3244;42.708;23.288;2023-06-10T10:54:33;94470.59;;;28.49;36.86
6423;BME280;3244;42.708;23.288;2023-06-10T10:57:11;94464.31;;;28.58;37.54
6423;BME280;3244;42.708;23.288;2023-06-10T10:59:46;94463.28;;;28.90;37.51
6423;BME280;3244;42.708;23.288;2023-06-10T11:02:18;94460.13;;;29.24;38.36
6423;BME280;3244;42.708;23.288;2023-06-10T11:04:46;94451.41;;;29.61;37.50
6423;BME280;3244;42.708;23.288;2023-06-10T11:07:13;94452.91;;;29.99;37.61
6423;BME280;3244;42.708;23.288;2023-06-10T11:09:57;94445.22;;;30.13;36.93
6423;BME280;3244;42.708;23.288;2023-06-10T11:12:40;94435.00;;;30.03;36.09
6423;BME280;3244;42.708;23.288;2023-06-10T11:15:08;94442.81;;;29.82;36.17
6423;BME280;3244;42.708;23.288;2023-06-10T11:17:34;94437.59;;;29.52;37.82
6423;BME280;3244;42.708;23.288;2023-06-10T11:20:01;94445.53;;;29.29;37.89
6423;BME280;3244;42.708;23.288;2023-06-10T11:22:28;94434.50;;;29.04;38.85
6423;BME280;3244;42.708;23.288;2023-06-10T11:24:54;94437.47;;;29.01;39.32
6423;BME280;3244;42.708;23.288;2023-06-10T11:27:25;94439.09;;;28.65;40.34
6423;BME280;3244;42.708;23.288;2023-06-10T11:29:56;94431.44;;;28.18;42.22
6423;BME280;3244;42.708;23.288;2023-06-10T11:32:23;94423.50;;;27.33;43.75
6423;BME280;3244;42.708;23.288;2023-06-10T11:34:52;94410.94;;;26.40;45.17
6423;BME280;3244;42.708;23.288;2023-06-10T11:37:19;94428.16;;;26.09;45.87
6423;BME280;3244;42.708;23.288;2023-06-10T11:39:46;94424.88;;;25.99;46.15
6423;BME280;3244;42.708;23.288;2023-06-10T11:42:13;94425.91;;;26.22;46.30
6423;BME280;3244;42.708;23.288;2023-06-10T11:44:48;94428.84;;;26.60;46.65
6423;BME280;3244;42.708;23.288;2023-06-10T11:47:16;94426.38;;;26.99;42.23
6423;BME280;3244;42.708;23.288;2023-06-10T11:49:42;94425.72;;;27.52;43.29
6423;BME280;3244;42.708;23.288;2023-06-10T11:52:09;94421.38;;;28.06;43.31
6423;BME280;3244;42.708;23.288;2023-06-10T11:54:36;94415.06;;;28.47;40.35
6423;BME280;3244;42.708;23.288;2023-06-10T11:57:03;94418.25;;;28.57;40.75
6423;BME280;3244;42.708;23.288;2023-06-10T11:59:30;94427.38;;;28.15;38.07
6423;BME280;3244;42.708;23.288;2023-06-10T12:01:59;94419.28;;;28.02;38.74
6423;BME280;3244;42.708;23.288;2023-06-10T12:04:25;94411.63;;;28.00;37.62
6423;BME280;3244;42.708;23.288;2023-06-10T12:06:53;94403.50;;;27.95;37.21
6423;BME280;3244;42.708;23.288;2023-06-10T12:09:21;94408.91;;;28.17;39.51
6423;BME280;3244;42.708;23.288;2023-06-10T12:11:50;94411.47;;;28.48;37.85
6423;BME280;3244;42.708;23.288;2023-06-10T12:14:50;94414.16;;;28.77;39.02
6423;BME280;3244;42.708;23.288;2023-06-10T12:17:20;94413.16;;;29.16;35.63
6423;BME280;3244;42.708;23.288;2023-06-10T12:19:47;94407.63;;;29.10;34.07
6423;BME280;3244;42.708;23.288;2023-06-10T12:22:14;94407.44;;;28.97;33.80
6423;BME280;3244;42.708;23.288;2023-06-10T12:24:44;94402.47;;;28.88;34.72
6423;BME280;3244;42.708;23.288;2023-06-10T12:27:11;94405.06;;;28.50;33.88
6423;BME280;3244;42.708;23.288;2023-06-10T12:29:38;94403.34;;;28.20;33.08
6423;BME280;3244;42.708;23.288;2023-06-10T12:32:05;94410.06;;;27.91;34.90
6423;BME280;3244;42.708;23.288;2023-06-10T12:34:35;94393.56;;;27.68;34.72
6423;BME280;3244;42.708;23.288;2023-06-10T12:37:04;94394.03;;;27.71;34.91
6423;BME280;3244;42.708;23.288;2023-06-10T12:39:32;94386.66;;;27.98;35.29
6423;BME280;3244;42.708;23.288;2023-06-10T12:41:59;94386.50;;;28.22;33.42
6423;BME280;3244;42.708;23.288;2023-06-10T12:44:30;94387.53;;;28.13;32.79
6423;BME280;3244;42.708;23.288;2023-06-10T12:46:57;94385.66;;;27.99;33.93
6423;BME280;3244;42.708;23.288;2023-06-10T12:49:23;94386.66;;;27.98;33.77
6423;BME280;3244;42.708;23.288;2023-06-10T12:51:53;94397.34;;;28.11;33.13
6423;BME280;3244;42.708;23.288;2023-06-10T12:54:20;94393.22;;;28.17;33.81
6423;BME280;3244;42.708;23.288;2023-06-10T12:56:47;94396.66;;;28.17;34.53
6423;BME280;3244;42.708;23.288;2023-06-10T12:59:14;94390.91;;;28.22;33.93
6423;BME280;3244;42.708;23.288;2023-06-10T13:01:40;94394.25;;;28.38;33.45
6423;BME280;3244;42.708;23.288;2023-06-10T13:04:07;94390.81;;;28.38;33.79
6423;BME280;3244;42.708;23.288;2023-06-10T13:06:35;94389.75;;;28.24;33.09
6423;BME280;3244;42.708;23.288;2023-06-10T13:09:06;94391.59;;;28.16;33.55
6423;BME280;3244;42.708;23.288;2023-06-10T13:11:34;94408.31;;;28.06;37.69
6423;BME280;3244;42.708;23.288;2023-06-10T13:14:02;94422.59;;;27.65;42.50